createdAt,value
2018-05-24T00:01:29.454Z,57.80
2018-05-24T00:03:59.969Z,58.00
2018-05-24T00:06:30.455Z,58.10
2018-05-24T00:09:01.803Z,58.30
2018-05-24T00:11:32.997Z,58.60
2018-05-24T00:14:03.553Z,58.60
2018-05-24T00:16:34.958Z,58.70
2018-05-24T00:19:05.498Z,58.30
2018-05-24T00:21:36.814Z,58.20
2018-05-24T00:24:07.394Z,58.20
2018-05-24T00:26:37.851Z,58.30
2018-05-24T00:29:08.480Z,58.30
2018-05-24T00:31:38.908Z,58.20
2018-05-24T00:34:10.258Z,58.20
2018-05-24T00:36:40.743Z,58.10
2018-05-24T00:39:11.363Z,57.80
2018-05-24T00:41:41.757Z,57.70
2018-05-24T00:44:12.208Z,57.50
2018-05-24T00:46:42.687Z,57.90
2018-05-24T00:49:13.195Z,57.50
2018-05-24T00:51:43.680Z,57.30
2018-05-24T00:54:14.204Z,57.40
2018-05-24T00:56:44.693Z,57.70
2018-05-24T00:59:15.941Z,57.10
2018-05-24T01:01:46.396Z,57.10
2018-05-24T01:04:17.091Z,57.10
2018-05-24T01:06:47.761Z,57.00
2018-05-24T01:09:18.511Z,56.90
2018-05-24T01:11:49.154Z,57.10
2018-05-24T01:14:19.663Z,57.20
2018-05-24T01:16:50.125Z,57.00
2018-05-24T01:19:20.635Z,57.10
2018-05-24T01:21:51.085Z,57.00
2018-05-24T01:24:21.665Z,56.90
2018-05-24T01:26:52.122Z,57.20
2018-05-24T01:29:22.637Z,57.10
2018-05-24T01:31:53.117Z,57.00
2018-05-24T01:34:23.703Z,57.00
2018-05-24T01:37:11.898Z,57.20
2018-05-24T01:39:43.126Z,57.50
2018-05-24T01:42:14.402Z,57.00
2018-05-24T01:44:45.000Z,57.00
2018-05-24T01:47:15.452Z,57.90
2018-05-24T01:49:46.046Z,57.50
2018-05-24T01:52:16.510Z,57.40
2018-05-24T01:54:47.829Z,57.10
2018-05-24T01:57:18.304Z,57.10
2018-05-24T01:59:48.879Z,57.50
2018-05-24T02:02:19.459Z,57.50
2018-05-24T02:04:50.026Z,57.50
2018-05-24T02:07:20.585Z,57.40
2018-05-24T02:09:51.182Z,57.50
2018-05-24T02:12:21.675Z,57.70
2018-05-24T02:14:52.191Z,57.50
2018-05-24T02:17:22.804Z,57.50
2018-05-24T02:19:53.332Z,57.50
2018-05-24T02:22:24.574Z,58.00
2018-05-24T02:24:55.081Z,57.70
2018-05-24T02:27:25.575Z,57.70
2018-05-24T02:29:56.151Z,57.60
2018-05-24T02:32:27.424Z,58.00
2018-05-24T02:34:58.720Z,58.00
2018-05-24T02:37:29.172Z,58.00
2018-05-24T02:39:59.721Z,58.30
2018-05-24T02:42:30.157Z,58.20
2018-05-24T02:45:00.704Z,58.40
2018-05-24T02:47:31.898Z,58.40
2018-05-24T02:50:02.463Z,58.40
2018-05-24T02:52:32.940Z,58.60
2018-05-24T02:55:03.482Z,58.50
2018-05-24T02:57:34.003Z,58.90
2018-05-24T03:00:04.571Z,59.00
2018-05-24T03:02:35.145Z,59.20
2018-05-24T03:05:05.675Z,59.90
2018-05-24T03:07:36.125Z,59.80
2018-05-24T03:10:06.709Z,59.70
2018-05-24T03:12:37.887Z,59.80
2018-05-24T03:15:08.380Z,59.80
2018-05-24T03:17:38.928Z,60.00
2018-05-24T03:20:09.462Z,60.20
2018-05-24T03:22:40.046Z,60.50
2018-05-24T03:25:10.606Z,60.70
2018-05-24T03:27:41.936Z,61.10
2018-05-24T03:30:13.403Z,61.00
2018-05-24T03:32:44.658Z,61.20
2018-05-24T03:35:15.177Z,61.20
2018-05-24T03:37:45.625Z,61.60
2018-05-24T03:40:16.167Z,61.60
2018-05-24T03:42:46.650Z,61.70
2018-05-24T03:45:17.207Z,61.80
2018-05-24T03:47:47.659Z,61.90
2018-05-24T03:50:18.213Z,62.30
2018-05-24T03:52:48.759Z,62.60
2018-05-24T03:55:19.348Z,62.50
2018-05-24T03:57:49.886Z,62.90
2018-05-24T04:00:37.978Z,63.00
2018-05-24T04:03:25.876Z,63.00
2018-05-24T04:05:57.046Z,63.70
2018-05-24T04:08:28.395Z,63.70
2018-05-24T04:10:58.992Z,63.80
2018-05-24T04:13:29.416Z,63.90
2018-05-24T04:16:00.013Z,64.20
2018-05-24T04:18:30.474Z,64.60
2018-05-24T04:21:01.003Z,64.40
2018-05-24T04:23:31.498Z,64.90
2018-05-24T04:26:02.120Z,64.90
2018-05-24T04:28:32.590Z,65.10
2018-05-24T04:31:02.708Z,65.00
2018-05-24T04:33:32.752Z,64.80
2018-05-24T04:36:02.770Z,64.80
2018-05-24T04:38:32.789Z,64.80
2018-05-24T04:41:02.777Z,64.80
2018-05-24T04:43:32.946Z,65.20
2018-05-24T04:46:02.999Z,65.30
2018-05-24T04:48:33.095Z,65.10
2018-05-24T04:51:03.870Z,65.70
2018-05-24T04:53:33.870Z,65.70
2018-05-24T04:56:04.628Z,66.00
2018-05-24T04:58:34.657Z,65.80
2018-05-24T05:01:05.466Z,66.30
2018-05-24T05:03:35.505Z,66.00
2018-05-24T05:06:05.621Z,66.20
2018-05-24T05:08:35.677Z,66.60
2018-05-24T05:11:05.698Z,66.90
2018-05-24T05:13:35.711Z,66.90
2018-05-24T05:16:05.701Z,67.00
2018-05-24T05:18:35.727Z,67.60
2018-05-24T05:21:05.757Z,67.70
2018-05-24T05:23:35.856Z,67.50
2018-05-24T05:26:05.942Z,67.20
2018-05-24T05:28:35.979Z,67.40
2018-05-24T05:31:06.063Z,67.60
2018-05-24T05:33:36.087Z,67.40
2018-05-24T05:36:06.081Z,67.50
2018-05-24T05:38:36.110Z,67.50
2018-05-24T05:41:06.103Z,67.60
2018-05-24T05:43:38.445Z,67.60
2018-05-24T05:46:08.417Z,67.90
2018-05-24T05:48:39.224Z,68.20
2018-05-24T05:51:09.198Z,68.10
2018-05-24T05:53:39.221Z,68.10
2018-05-24T05:56:10.028Z,68.60
2018-05-24T05:58:40.077Z,68.20
2018-05-24T06:01:10.110Z,68.30
2018-05-24T06:03:40.123Z,68.00
2018-05-24T06:06:10.160Z,67.50
2018-05-24T06:08:40.163Z,67.50
2018-05-24T06:11:10.144Z,67.70
2018-05-24T06:13:40.177Z,67.70
2018-05-24T06:16:10.238Z,67.50
2018-05-24T06:18:40.297Z,67.10
2018-05-24T06:21:10.341Z,66.50
2018-05-24T06:23:40.339Z,66.80
2018-05-24T06:26:10.296Z,66.60
2018-05-24T06:28:40.316Z,66.20
2018-05-24T06:31:10.426Z,66.10
2018-05-24T06:33:40.423Z,66.60
2018-05-24T06:36:10.472Z,65.50
2018-05-24T06:38:40.541Z,65.50
2018-05-24T06:41:10.512Z,65.30
2018-05-24T06:43:41.311Z,65.10
2018-05-24T06:46:11.380Z,65.00
2018-05-24T06:48:42.187Z,64.50
2018-05-24T06:51:12.210Z,64.50
2018-05-24T06:53:42.212Z,65.10
2018-05-24T06:56:12.239Z,64.50
2018-05-24T06:58:42.283Z,63.30
2018-05-24T07:01:12.301Z,63.90
2018-05-24T07:03:43.529Z,63.10
2018-05-24T07:06:14.420Z,62.70
2018-05-24T07:08:45.230Z,63.00
2018-05-24T07:11:15.219Z,62.90
2018-05-24T07:13:45.979Z,62.10
2018-05-24T07:16:16.092Z,62.00
2018-05-24T07:18:46.155Z,62.50
2018-05-24T07:21:16.165Z,62.00
2018-05-24T07:23:46.227Z,62.50
2018-05-24T07:26:16.954Z,62.40
2018-05-24T07:28:47.021Z,62.40
2018-05-24T07:31:17.793Z,61.20
2018-05-24T07:33:58.167Z,61.20
2018-05-24T07:36:30.441Z,60.40
2018-05-24T07:39:00.526Z,60.60
2018-05-24T07:41:31.301Z,61.20
2018-05-24T07:44:02.139Z,61.00
2018-05-24T07:46:32.114Z,61.00
2018-05-24T07:49:02.240Z,60.10
2018-05-24T07:51:32.221Z,59.10
2018-05-24T07:54:02.307Z,59.30
2018-05-24T07:56:33.593Z,57.90
2018-05-24T07:59:04.450Z,58.60
2018-05-24T08:01:34.496Z,57.90
2018-05-24T08:04:04.546Z,56.90
2018-05-24T08:06:34.525Z,57.40
2018-05-24T08:09:05.333Z,57.30
2018-05-24T08:11:35.578Z,57.30
2018-05-24T08:14:05.637Z,56.00
2018-05-24T08:16:35.614Z,55.20
2018-05-24T08:19:07.457Z,56.10
2018-05-24T08:21:38.375Z,56.00
2018-05-24T08:24:08.613Z,54.60
2018-05-24T08:26:38.678Z,53.60
2018-05-24T08:29:08.917Z,52.40
2018-05-24T08:31:39.022Z,51.50
2018-05-24T08:34:09.075Z,52.60
2018-05-24T08:36:39.562Z,51.40
2018-05-24T08:39:09.629Z,50.40
2018-05-24T08:41:39.755Z,49.60
2018-05-24T08:44:09.739Z,49.10
2018-05-24T08:46:39.793Z,49.10
2018-05-24T08:49:09.812Z,49.00
2018-05-24T08:51:39.806Z,49.40
2018-05-24T08:54:09.831Z,48.80
2018-05-24T08:56:39.899Z,48.70
2018-05-24T08:59:10.652Z,48.70
2018-05-24T09:01:41.929Z,48.70
2018-05-24T09:04:12.258Z,48.80
2018-05-24T09:06:42.314Z,49.10
2018-05-24T09:09:14.322Z,49.20
2018-05-24T09:11:44.627Z,49.20
2018-05-24T09:14:14.628Z,48.90
2018-05-24T09:16:44.580Z,50.10
2018-05-24T09:19:14.586Z,49.00
2018-05-24T09:21:44.571Z,50.00
2018-05-24T09:24:14.581Z,49.20
2018-05-24T09:26:44.550Z,48.70
2018-05-24T09:29:15.438Z,48.30
2018-05-24T09:31:45.407Z,48.30
2018-05-24T09:34:15.457Z,48.80
2018-05-24T09:36:45.440Z,48.30
2018-05-24T09:39:15.451Z,47.70
2018-05-24T09:41:45.529Z,48.70
2018-05-24T09:44:15.570Z,48.40
2018-05-24T09:46:45.610Z,48.80
2018-05-24T09:49:15.648Z,47.50
2018-05-24T09:51:45.617Z,47.10
2018-05-24T09:54:15.799Z,47.20
2018-05-24T09:56:46.573Z,47.30
2018-05-24T09:59:16.561Z,47.30
2018-05-24T10:01:46.567Z,47.30
2018-05-24T10:04:16.654Z,48.40
2018-05-24T10:06:46.672Z,47.70
2018-05-24T10:09:16.739Z,46.80
2018-05-24T10:11:46.735Z,47.70
2018-05-24T10:14:16.759Z,47.50
2018-05-24T10:16:46.734Z,47.30
2018-05-24T10:19:16.778Z,47.00
2018-05-24T10:21:46.905Z,46.80
2018-05-24T10:24:17.736Z,46.80
2018-05-24T10:26:48.520Z,45.90
2018-05-24T10:29:18.619Z,45.80
2018-05-24T10:31:48.523Z,46.40
2018-05-24T10:34:18.549Z,46.10
2018-05-24T10:36:48.505Z,46.80
2018-05-24T10:39:18.590Z,47.80
2018-05-24T10:41:48.598Z,46.80
2018-05-24T10:44:19.429Z,46.70
2018-05-24T10:46:49.421Z,46.60
2018-05-24T10:49:20.161Z,45.40
2018-05-24T10:51:50.165Z,45.40
2018-05-24T10:54:20.162Z,45.80
2018-05-24T10:56:50.238Z,45.70
2018-05-24T10:59:20.954Z,45.10
2018-05-24T11:01:50.980Z,45.10
2018-05-24T11:04:21.045Z,45.20
2018-05-24T11:06:51.127Z,45.40
2018-05-24T11:09:21.873Z,44.70
2018-05-24T11:11:51.876Z,44.60
2018-05-24T11:14:21.907Z,44.60
2018-05-24T11:16:51.909Z,44.20
2018-05-24T11:19:21.901Z,44.10
2018-05-24T11:21:52.705Z,42.10
2018-05-24T11:24:22.673Z,42.10
2018-05-24T11:26:52.699Z,42.10
2018-05-24T11:29:22.710Z,42.90
2018-05-24T11:31:52.740Z,42.80
2018-05-24T11:34:22.769Z,42.50
2018-05-24T11:36:52.802Z,42.80
2018-05-24T11:39:30.523Z,42.90
2018-05-24T11:42:01.287Z,44.10
2018-05-24T11:44:31.320Z,44.00
2018-05-24T11:47:01.371Z,44.60
2018-05-24T11:55:39.589Z,42.70
2018-05-24T11:58:09.638Z,42.90
2018-05-24T12:00:39.641Z,43.10
2018-05-24T12:03:09.916Z,42.80
2018-05-24T12:05:39.935Z,42.60
2018-05-24T12:08:09.950Z,42.00
2018-05-24T12:10:39.962Z,42.60
2018-05-24T12:13:09.992Z,43.10
2018-05-24T12:15:39.995Z,42.00
2018-05-24T12:18:10.611Z,42.30
2018-05-24T12:20:40.734Z,43.00
2018-05-24T12:23:10.741Z,42.90
2018-05-24T12:25:41.051Z,43.20
2018-05-24T12:28:11.842Z,44.00
2018-05-24T12:30:41.942Z,44.00
2018-05-24T12:33:12.673Z,43.20
2018-05-24T12:35:42.864Z,43.20
2018-05-24T12:38:12.733Z,43.00
2018-05-24T12:40:42.751Z,43.40
2018-05-24T12:43:12.748Z,44.00
2018-05-24T12:45:43.505Z,44.10
2018-05-24T12:48:14.261Z,43.10
2018-05-24T12:50:44.315Z,43.10
2018-05-24T12:53:14.296Z,43.30
2018-05-24T12:55:44.370Z,43.40
2018-05-24T12:58:14.336Z,43.40
2018-05-24T13:00:44.318Z,42.60
2018-05-24T13:03:14.260Z,42.00
2018-05-24T13:05:44.266Z,41.50
2018-05-24T13:08:14.269Z,41.80
2018-05-24T13:10:44.264Z,41.80
2018-05-24T13:13:14.647Z,41.40
2018-05-24T13:15:45.191Z,41.90
2018-05-24T13:18:15.635Z,41.90
2018-05-24T13:20:46.931Z,42.50
2018-05-24T13:23:17.261Z,42.50
2018-05-24T13:25:47.721Z,43.20
2018-05-24T13:28:18.978Z,42.70
2018-05-24T13:30:50.160Z,42.70
2018-05-24T13:33:20.660Z,42.70
2018-05-24T13:35:51.998Z,42.20
2018-05-24T13:38:23.254Z,41.20
2018-05-24T13:40:54.650Z,41.60
2018-05-24T13:43:25.075Z,41.50
2018-05-24T13:45:55.551Z,41.60
2018-05-24T13:48:26.684Z,40.40
2018-05-24T13:50:57.123Z,40.40
2018-05-24T13:53:27.133Z,39.90
2018-05-24T13:55:58.403Z,39.60
2018-05-24T13:58:28.817Z,39.50
2018-05-24T14:00:58.941Z,40.00
2018-05-24T14:03:29.361Z,40.10
2018-05-24T14:05:59.927Z,38.50
2018-05-24T14:08:31.010Z,39.10
2018-05-24T14:11:02.230Z,38.80
2018-05-24T14:13:32.619Z,38.70
2018-05-24T14:16:03.163Z,38.50
2018-05-24T14:18:33.638Z,37.50
2018-05-24T14:21:04.805Z,37.60
2018-05-24T14:23:34.791Z,38.20
2018-05-24T14:26:05.641Z,36.40
2018-05-24T14:28:36.341Z,36.20
2018-05-24T14:31:06.420Z,36.00
2018-05-24T14:33:36.361Z,35.70
2018-05-24T14:36:06.385Z,35.10
2018-05-24T14:38:36.342Z,34.80
2018-05-24T14:41:06.345Z,35.20
2018-05-24T14:43:37.065Z,35.00
2018-05-24T14:46:07.170Z,34.90
2018-05-24T14:48:37.145Z,34.70
2018-05-24T14:51:07.136Z,34.10
2018-05-24T14:53:37.145Z,34.60
2018-05-24T14:56:07.853Z,34.00
2018-05-24T14:58:37.876Z,33.80
2018-05-24T15:01:08.649Z,33.60
2018-05-24T15:03:38.636Z,33.50
2018-05-24T15:06:08.670Z,34.00
2018-05-24T15:08:39.413Z,33.50
2018-05-24T15:11:10.217Z,34.00
2018-05-24T15:13:51.813Z,34.00
2018-05-24T15:16:21.817Z,33.80
2018-05-24T15:18:51.833Z,34.40
2018-05-24T15:21:21.847Z,33.90
2018-05-24T15:23:51.914Z,33.40
2018-05-24T15:26:21.891Z,33.30
2018-05-24T15:28:51.877Z,33.30
2018-05-24T15:31:22.592Z,33.40
2018-05-24T15:33:52.583Z,33.30
2018-05-24T15:36:23.304Z,33.20
2018-05-24T15:38:54.049Z,33.80
2018-05-24T15:41:24.775Z,33.90
2018-05-24T15:43:56.255Z,34.60
2018-05-24T15:46:26.199Z,33.40
2018-05-24T15:48:56.298Z,33.80
2018-05-24T15:51:27.038Z,32.50
2018-05-24T15:53:57.027Z,32.50
2018-05-24T15:56:27.051Z,33.10
2018-05-24T15:58:57.084Z,33.40
2018-05-24T16:01:27.045Z,34.00
2018-05-24T16:03:57.889Z,34.00
2018-05-24T16:06:27.912Z,33.20
2018-05-24T16:08:57.926Z,32.90
2018-05-24T16:11:27.893Z,33.70
2018-05-24T16:13:57.919Z,33.80
2018-05-24T16:16:27.878Z,33.20
2018-05-24T16:18:57.889Z,34.10
2018-05-24T16:21:28.659Z,34.60
2018-05-24T16:23:58.653Z,34.60
2018-05-24T16:26:28.621Z,34.60
2018-05-24T16:28:58.619Z,34.20
2018-05-24T16:31:28.570Z,34.20
2018-05-24T16:33:58.579Z,34.60
2018-05-24T16:36:29.337Z,34.50
2018-05-24T16:39:00.087Z,34.40
2018-05-24T16:41:30.030Z,34.50
2018-05-24T16:44:00.063Z,34.90
2018-05-24T16:46:30.160Z,34.50
2018-05-24T16:49:00.141Z,34.60
2018-05-24T16:51:30.130Z,35.40
2018-05-24T16:54:00.151Z,34.50
2018-05-24T16:56:30.098Z,35.20
2018-05-24T16:59:00.572Z,34.80
2018-05-24T17:01:30.530Z,34.80
2018-05-24T17:04:01.324Z,34.60
2018-05-24T17:06:31.304Z,34.60
2018-05-24T17:09:01.298Z,34.80
2018-05-24T17:11:31.244Z,35.10
2018-05-24T17:14:01.251Z,35.30
2018-05-24T17:16:31.966Z,35.50
2018-05-24T17:19:01.980Z,35.60
2018-05-24T17:21:32.006Z,35.60
2018-05-24T17:24:02.181Z,36.40
2018-05-24T17:26:33.530Z,37.30
2018-05-24T17:29:03.686Z,37.30
2018-05-24T17:31:33.784Z,37.50
2018-05-24T17:34:04.555Z,38.20
2018-05-24T17:36:34.697Z,38.20
2018-05-24T17:39:06.644Z,38.70
2018-05-24T17:41:37.528Z,38.70
2018-05-24T17:44:07.968Z,39.10
2018-05-24T17:46:38.031Z,39.30
2018-05-24T17:49:08.034Z,39.80
2018-05-24T17:51:38.051Z,40.40
2018-05-24T17:54:08.137Z,40.70
2018-05-24T17:56:38.610Z,41.30
2018-05-24T17:59:08.597Z,41.70
2018-05-24T18:01:38.576Z,41.60
2018-05-24T18:04:08.591Z,42.20
2018-05-24T18:06:38.590Z,42.30
2018-05-24T18:09:08.598Z,43.20
2018-05-24T18:11:38.606Z,43.30
2018-05-24T18:14:08.591Z,43.90
2018-05-24T18:16:39.016Z,44.10
2018-05-24T18:19:10.199Z,44.40
2018-05-24T18:21:40.218Z,44.30
2018-05-24T18:24:10.200Z,44.50
2018-05-24T18:26:40.161Z,45.00
2018-05-24T18:29:10.142Z,45.20
2018-05-24T18:31:40.247Z,45.20
2018-05-24T18:34:10.254Z,45.60
2018-05-24T18:36:41.010Z,46.10
2018-05-24T18:39:10.990Z,46.00
2018-05-24T18:41:41.013Z,46.40
2018-05-24T18:44:11.015Z,46.40
2018-05-24T18:46:41.848Z,46.70
2018-05-24T18:49:12.150Z,46.60
2018-05-24T18:51:42.133Z,47.10
2018-05-24T18:54:12.178Z,47.20
2018-05-24T18:56:42.899Z,48.20
2018-05-24T18:59:12.918Z,47.90
2018-05-24T19:01:42.882Z,47.80
2018-05-24T19:04:12.896Z,48.40
2018-05-24T19:06:43.571Z,48.10
2018-05-24T19:09:13.542Z,47.90
2018-05-24T19:11:43.514Z,47.80
2018-05-24T19:14:14.432Z,48.30
2018-05-24T19:16:44.404Z,48.30
2018-05-24T19:19:14.438Z,48.40
2018-05-24T19:21:45.173Z,49.00
2018-05-24T19:24:15.177Z,48.90
2018-05-24T19:26:45.133Z,49.10
2018-05-24T19:29:15.158Z,49.00
2018-05-24T19:31:45.274Z,49.30
2018-05-24T19:34:15.265Z,49.50
2018-05-24T19:36:46.043Z,49.60
2018-05-24T19:39:16.021Z,49.60
2018-05-24T19:41:46.829Z,49.80
2018-05-24T19:44:16.800Z,49.70
2018-05-24T19:46:46.823Z,50.00
2018-05-24T19:49:16.765Z,50.10
2018-05-24T19:51:46.765Z,50.20
2018-05-24T19:54:16.749Z,50.50
2018-05-24T19:56:48.879Z,50.60
2018-05-24T19:59:19.182Z,50.90
2018-05-24T20:01:49.239Z,50.80
2018-05-24T20:04:20.006Z,51.00
2018-05-24T20:06:50.025Z,50.90
2018-05-24T20:09:20.118Z,51.30
2018-05-24T20:11:50.112Z,51.40
2018-05-24T20:14:20.054Z,51.30
2018-05-24T20:16:50.100Z,51.90
2018-05-24T20:19:20.164Z,51.60
2018-05-24T20:21:50.634Z,51.70
2018-05-24T20:24:20.707Z,51.80
2018-05-24T20:26:50.719Z,52.00
2018-05-24T20:29:20.689Z,52.20
2018-05-24T20:31:50.706Z,52.30
2018-05-24T20:34:20.669Z,52.30
2018-05-24T20:36:52.001Z,52.90
2018-05-24T20:39:22.618Z,52.10
2018-05-24T20:41:52.617Z,52.90
2018-05-24T20:44:23.433Z,53.00
2018-05-24T20:46:53.661Z,53.20
2018-05-24T20:49:25.268Z,53.60
2018-05-24T20:51:55.283Z,53.40
2018-05-24T20:54:26.732Z,53.90
2018-05-24T20:56:57.546Z,53.90
2018-05-24T20:59:29.114Z,53.90
2018-05-24T21:01:59.785Z,54.10
2018-05-24T21:04:31.428Z,54.30
2018-05-24T21:07:03.624Z,54.40
2018-05-24T21:09:35.239Z,54.30
2018-05-24T21:12:07.409Z,54.80
2018-05-24T21:14:37.739Z,54.80
2018-05-24T21:17:08.562Z,54.90
2018-05-24T21:19:38.955Z,54.90
2018-05-24T21:22:09.405Z,55.00
2018-05-24T21:24:39.752Z,55.00
2018-05-24T21:27:10.944Z,55.40
2018-05-24T21:29:42.208Z,55.50
2018-05-24T21:32:12.633Z,55.50
2018-05-24T21:34:43.046Z,55.60
2018-05-24T21:37:13.722Z,55.80
2018-05-24T21:39:44.871Z,56.20
2018-05-24T21:42:16.021Z,56.20
2018-05-24T21:44:46.549Z,56.20
2018-05-24T21:47:16.941Z,56.30
2018-05-24T21:49:48.165Z,56.60
2018-05-24T21:52:18.605Z,56.50
2018-05-24T21:54:49.003Z,56.70
2018-05-24T21:57:19.497Z,56.90
2018-05-24T21:59:50.584Z,56.90
2018-05-24T22:02:21.633Z,56.90
2018-05-24T22:04:55.595Z,56.90
2018-05-24T22:07:27.907Z,56.90
2018-05-24T22:09:58.679Z,57.10
2018-05-24T22:12:29.880Z,57.10
2018-05-24T22:15:00.785Z,57.30
2018-05-24T22:17:31.624Z,57.10
2018-05-24T22:20:02.325Z,57.30
2018-05-24T22:22:33.610Z,57.50
2018-05-24T22:25:05.371Z,57.50
2018-05-24T22:27:36.159Z,57.50
2018-05-24T22:30:07.057Z,57.50
2018-05-24T22:32:39.547Z,57.60
2018-05-24T22:35:10.529Z,57.70
2018-05-24T22:37:41.966Z,58.20
2018-05-24T22:40:13.952Z,58.10
2018-05-24T22:42:44.890Z,58.10
2018-05-24T22:45:15.729Z,58.20
2018-05-24T22:47:46.871Z,58.40
2018-05-24T22:50:17.250Z,58.50
2018-05-24T22:52:48.288Z,58.60
2018-05-24T22:55:18.762Z,58.70
2018-05-24T22:57:50.255Z,58.70
2018-05-24T23:00:21.372Z,59.00
2018-05-24T23:02:52.288Z,59.70
2018-05-24T23:05:23.726Z,59.90
2018-05-24T23:07:55.428Z,60.10
2018-05-24T23:10:27.015Z,61.30
2018-05-24T23:12:58.115Z,60.40
2018-05-24T23:15:28.806Z,60.80
2018-05-24T23:17:59.398Z,61.20
2018-05-24T23:20:30.589Z,61.40
2018-05-24T23:23:01.492Z,61.50
2018-05-24T23:25:32.534Z,61.80
2018-05-24T23:28:04.021Z,61.90
2018-05-24T23:30:34.533Z,62.10
2018-05-24T23:33:07.157Z,62.30
2018-05-24T23:35:38.379Z,62.60
2018-05-24T23:38:10.227Z,62.60
2018-05-24T23:40:41.407Z,62.60
2018-05-24T23:43:12.571Z,62.60
2018-05-24T23:45:43.231Z,62.60
2018-05-24T23:48:14.682Z,62.90
2018-05-24T23:50:45.886Z,62.80
2018-05-24T23:53:20.224Z,62.60
2018-05-24T23:55:51.384Z,62.60
2018-05-24T23:58:21.944Z,62.60
